createdAt,value
2022-11-22T00:00:29.335Z,5.15
2022-11-22T00:03:32.696Z,7.95
2022-11-22T00:06:34.840Z,7.25
2022-11-22T00:09:37.059Z,7.68
2022-11-22T00:12:39.962Z,7.88
2022-11-22T00:15:42.545Z,6.85
2022-11-22T00:18:44.566Z,7.68
2022-11-22T00:21:47.012Z,7.43
2022-11-22T00:24:51.870Z,6.88
2022-11-22T00:27:55.262Z,5.85
2022-11-22T00:31:00.341Z,5.60
2022-11-22T00:34:02.672Z,11.10
2022-11-22T00:37:04.835Z,5.45
2022-11-22T00:40:07.700Z,3.97
2022-11-22T00:43:09.739Z,5.22
2022-11-22T00:46:11.808Z,7.68
2022-11-22T00:49:13.979Z,6.85
2022-11-22T00:52:16.377Z,7.63
2022-11-22T00:55:18.525Z,7.65
2022-11-22T00:58:20.582Z,5.22
2022-11-22T01:01:22.680Z,5.30
2022-11-22T01:04:24.843Z,6.93
2022-11-22T01:07:27.551Z,6.75
2022-11-22T01:10:29.630Z,6.35
2022-11-22T01:13:31.907Z,5.25
2022-11-22T01:16:35.094Z,5.82
2022-11-22T01:19:37.238Z,6.63
2022-11-22T01:22:39.283Z,6.15
2022-11-22T01:25:44.375Z,5.60
2022-11-22T01:28:46.466Z,7.45
2022-11-22T01:31:48.561Z,7.93
2022-11-22T01:34:50.555Z,6.28
2022-11-22T01:37:52.764Z,6.38
2022-11-22T01:40:55.290Z,4.63
2022-11-22T01:43:57.418Z,4.90
2022-11-22T01:47:17.899Z,5.65
2022-11-22T01:50:20.404Z,6.50
2022-11-22T01:53:30.440Z,7.47
2022-11-22T01:56:33.209Z,5.93
2022-11-22T01:59:38.352Z,6.07
2022-11-22T02:02:41.595Z,6.70
2022-11-22T02:05:43.679Z,5.38
2022-11-22T02:08:56.930Z,12.05
2022-11-22T02:12:02.758Z,6.75
2022-11-22T02:15:05.226Z,7.78
2022-11-22T02:18:07.314Z,8.63
2022-11-22T02:21:09.691Z,8.85
2022-11-22T02:24:27.107Z,9.98
2022-11-22T02:27:29.178Z,6.97
2022-11-22T02:30:31.693Z,6.70
2022-11-22T02:33:33.788Z,8.38
2022-11-22T02:36:41.604Z,6.25
2022-11-22T02:39:47.715Z,7.90
2022-11-22T02:42:56.007Z,7.28
2022-11-22T02:46:05.247Z,7.18
2022-11-22T02:49:07.398Z,8.05
2022-11-22T02:52:09.694Z,8.55
2022-11-22T02:55:11.983Z,5.93
2022-11-22T02:58:14.259Z,11.23
2022-11-22T03:01:16.687Z,10.02
2022-11-22T03:04:25.236Z,7.45
2022-11-22T03:07:27.468Z,6.22
2022-11-22T03:10:29.575Z,9.13
2022-11-22T03:13:31.572Z,8.30
2022-11-22T03:16:33.679Z,7.95
2022-11-22T03:19:35.880Z,8.10
2022-11-22T03:22:37.898Z,7.75
2022-11-22T03:25:40.125Z,5.93
2022-11-22T03:28:42.332Z,7.75
2022-11-22T03:31:45.204Z,9.05
2022-11-22T03:34:47.589Z,6.32
2022-11-22T03:37:49.689Z,6.43
2022-11-22T03:40:51.840Z,7.32
2022-11-22T03:43:53.907Z,6.22
2022-11-22T03:46:56.421Z,6.18
2022-11-22T03:49:58.634Z,7.60
2022-11-22T03:53:02.194Z,6.68
2022-11-22T03:56:04.971Z,5.63
2022-11-22T03:59:07.373Z,6.72
2022-11-22T04:02:09.693Z,8.10
2022-11-22T04:05:11.858Z,8.55
2022-11-22T04:08:14.313Z,8.15
2022-11-22T04:11:16.560Z,7.70
2022-11-22T04:14:37.522Z,7.43
2022-11-22T04:17:41.882Z,4.30
2022-11-22T04:21:02.982Z,5.13
2022-11-22T04:24:28.747Z,7.70
2022-11-22T04:27:31.156Z,5.47
2022-11-22T04:30:52.094Z,6.15
2022-11-22T04:33:54.100Z,13.40
2022-11-22T04:36:56.733Z,5.30
2022-11-22T04:39:59.404Z,5.50
2022-11-22T04:43:20.966Z,9.00
2022-11-22T04:46:25.563Z,6.47
2022-11-22T04:49:28.563Z,6.60
2022-11-22T04:52:49.958Z,10.85
2022-11-22T04:55:52.881Z,8.02
2022-11-22T04:58:55.021Z,6.80
2022-11-22T05:01:57.069Z,6.45
2022-11-22T05:05:00.334Z,8.48
2022-11-22T05:08:02.897Z,9.32
2022-11-22T05:11:05.087Z,7.30
2022-11-22T05:14:07.277Z,10.95
2022-11-22T05:17:13.635Z,11.25
2022-11-22T05:20:16.036Z,17.15
2022-11-22T05:23:37.436Z,7.90
2022-11-22T05:26:40.147Z,8.38
2022-11-22T05:29:42.203Z,7.00
2022-11-22T05:32:44.205Z,9.80
2022-11-22T05:35:46.288Z,8.32
2022-11-22T05:38:48.730Z,8.57
2022-11-22T05:41:58.006Z,9.68
2022-11-22T05:45:00.042Z,11.20
2022-11-22T05:48:03.222Z,12.93
2022-11-22T05:51:12.078Z,13.55
2022-11-22T05:54:13.992Z,13.93
2022-11-22T05:57:16.565Z,12.10
2022-11-22T06:00:18.997Z,8.65
2022-11-22T06:03:21.198Z,12.85
2022-11-22T06:06:25.488Z,10.93
2022-11-22T06:09:27.666Z,19.95
2022-11-22T06:12:30.496Z,12.15
2022-11-22T06:15:34.348Z,10.75
2022-11-22T06:18:37.378Z,10.75
2022-11-22T06:21:39.717Z,12.07
2022-11-22T06:24:43.069Z,16.20
2022-11-22T06:27:45.013Z,8.98
2022-11-22T06:30:47.051Z,11.15
2022-11-22T06:33:49.651Z,13.70
2022-11-22T06:36:51.825Z,14.20
2022-11-22T06:39:53.907Z,14.70
2022-11-22T06:42:55.901Z,12.15
2022-11-22T06:45:59.183Z,11.27
2022-11-22T06:49:01.485Z,13.68
2022-11-22T06:52:03.709Z,14.60
2022-11-22T06:55:08.110Z,14.38
2022-11-22T06:58:13.648Z,12.43
2022-11-22T07:01:18.795Z,14.32
2022-11-22T07:04:21.167Z,13.27
2022-11-22T07:07:24.132Z,9.68
2022-11-22T07:10:26.249Z,17.30
2022-11-22T07:13:28.668Z,13.25
2022-11-22T07:16:32.755Z,16.65
2022-11-22T07:19:35.910Z,15.27
2022-11-22T07:22:38.948Z,14.90
2022-11-22T07:25:52.218Z,20.60
2022-11-22T07:28:58.426Z,16.00
2022-11-22T07:32:00.465Z,18.58
2022-11-22T07:35:17.286Z,15.98
2022-11-22T07:38:20.486Z,14.15
2022-11-22T07:41:22.770Z,15.82
2022-11-22T07:44:25.860Z,15.25
2022-11-22T07:47:28.951Z,17.75
2022-11-22T07:50:36.810Z,20.13
2022-11-22T07:53:39.536Z,21.17
2022-11-22T07:56:41.563Z,18.25
2022-11-22T07:59:43.732Z,17.85
2022-11-22T08:02:47.846Z,11.77
2022-11-22T08:05:50.642Z,10.73
2022-11-22T08:09:00.492Z,18.23
2022-11-22T08:12:05.219Z,14.85
2022-11-22T08:15:08.333Z,14.77
2022-11-22T08:18:10.990Z,19.38
2022-11-22T08:21:15.710Z,20.13
2022-11-22T08:24:21.377Z,17.10
2022-11-22T08:27:24.850Z,20.33
2022-11-22T08:30:27.140Z,21.67
2022-11-22T08:33:29.346Z,18.80
2022-11-22T08:36:32.071Z,20.20
2022-11-22T08:39:34.181Z,18.38
2022-11-22T08:42:36.343Z,17.77
2022-11-22T08:45:39.303Z,26.42
2022-11-22T08:48:41.369Z,19.35
2022-11-22T08:51:45.142Z,20.27
2022-11-22T08:54:47.811Z,18.00
2022-11-22T08:57:49.915Z,21.02
2022-11-22T09:00:52.074Z,22.27
2022-11-22T09:03:54.232Z,19.75
2022-11-22T09:10:19.428Z,16.05
2022-11-22T09:13:21.476Z,21.20
2022-11-22T09:16:23.979Z,20.20
2022-11-22T09:19:26.252Z,21.50
2022-11-22T09:22:28.680Z,18.73
2022-11-22T09:25:31.365Z,17.42
2022-11-22T09:28:34.779Z,24.45
2022-11-22T09:31:36.944Z,21.85
2022-11-22T09:34:38.928Z,18.00
2022-11-22T09:37:41.485Z,14.75
2022-11-22T09:40:47.630Z,20.52
2022-11-22T09:43:59.123Z,17.90
2022-11-22T09:47:25.577Z,11.85
2022-11-22T09:50:54.943Z,19.77
2022-11-22T09:54:08.909Z,18.02
2022-11-22T09:57:21.968Z,19.00
2022-11-22T10:00:28.412Z,16.45
2022-11-22T10:03:52.404Z,21.25
2022-11-22T10:07:03.150Z,17.80
2022-11-22T10:10:22.593Z,19.45
2022-11-22T10:13:51.411Z,19.38
2022-11-22T10:17:16.485Z,17.25
2022-11-22T10:20:27.842Z,14.65
2022-11-22T10:23:33.006Z,18.98
2022-11-22T10:26:36.899Z,14.77
2022-11-22T10:29:51.638Z,16.95
2022-11-22T10:33:19.706Z,16.30
2022-11-22T10:36:43.512Z,15.88
2022-11-22T10:40:12.121Z,30.40
2022-11-22T10:43:34.387Z,19.58
2022-11-22T10:46:51.110Z,79.07
2022-11-22T10:50:01.207Z,55.42
2022-11-22T10:53:31.175Z,85.72
2022-11-22T10:56:55.119Z,19.58
2022-11-22T11:00:21.633Z,11.60
2022-11-22T11:03:27.013Z,17.95
2022-11-22T11:07:09.985Z,13.20
2022-11-22T11:10:20.128Z,17.67
2022-11-22T11:13:35.142Z,15.65
2022-11-22T11:16:38.276Z,15.60
2022-11-22T11:19:43.358Z,16.08
2022-11-22T11:23:13.065Z,17.27
2022-11-22T11:26:32.915Z,19.58
2022-11-22T11:29:46.853Z,13.30
2022-11-22T11:32:56.844Z,16.80
2022-11-22T11:36:06.975Z,21.08
2022-11-22T11:39:23.962Z,22.45
2022-11-22T11:42:29.123Z,18.00
2022-11-22T11:45:31.319Z,22.33
2022-11-22T11:48:38.318Z,17.08
2022-11-22T11:51:41.638Z,21.77
2022-11-22T11:54:50.592Z,15.15
2022-11-22T11:57:53.985Z,15.48
2022-11-22T12:00:57.913Z,17.65
2022-11-22T12:04:03.910Z,24.52
2022-11-22T12:07:19.861Z,16.80
2022-11-22T12:10:45.942Z,21.23
2022-11-22T12:17:27.277Z,18.98
2022-11-22T12:20:41.439Z,20.67
2022-11-22T12:24:34.326Z,15.63
2022-11-22T12:27:26.929Z,19.75
2022-11-22T12:30:30.860Z,16.70
2022-11-22T12:33:44.120Z,15.90
2022-11-22T12:37:01.123Z,18.40
2022-11-22T12:40:13.022Z,23.50
2022-11-22T12:43:26.501Z,21.48
2022-11-22T12:46:42.431Z,15.25
2022-11-22T12:50:09.731Z,22.15
2022-11-22T12:53:15.562Z,18.52
2022-11-22T12:56:32.812Z,20.48
2022-11-22T12:59:44.341Z,25.35
2022-11-22T13:03:23.650Z,30.30
2022-11-22T13:06:32.534Z,22.47
2022-11-22T13:09:41.532Z,28.05
2022-11-22T13:12:48.107Z,30.75
2022-11-22T13:15:53.374Z,18.88
2022-11-22T13:18:57.525Z,20.73
2022-11-22T13:22:21.219Z,22.80
2022-11-22T13:25:29.964Z,27.17
2022-11-22T13:28:39.400Z,22.70
2022-11-22T13:32:12.485Z,24.48
2022-11-22T13:35:15.535Z,19.65
2022-11-22T13:38:22.200Z,19.08
2022-11-22T13:42:12.914Z,20.25
2022-11-22T13:45:26.700Z,23.00
2022-11-22T13:48:42.103Z,20.88
2022-11-22T13:52:15.716Z,29.60
2022-11-22T13:55:40.393Z,19.90
2022-11-22T13:58:51.056Z,15.40
2022-11-22T14:01:55.947Z,17.92
2022-11-22T14:04:59.358Z,16.98
2022-11-22T14:08:04.866Z,22.38
2022-11-22T14:11:49.117Z,21.85
2022-11-22T14:15:27.545Z,34.90
2022-11-22T14:18:41.220Z,23.33
2022-11-22T14:21:53.014Z,22.88
2022-11-22T14:25:36.955Z,24.20
2022-11-22T14:29:10.257Z,26.50
2022-11-22T14:32:21.051Z,33.28
2022-11-22T14:35:29.591Z,32.20
2022-11-22T14:38:41.158Z,35.58
2022-11-22T14:41:45.717Z,30.00
2022-11-22T14:44:52.990Z,25.33
2022-11-22T14:48:06.248Z,34.28
2022-11-22T14:51:15.028Z,26.05
2022-11-22T14:54:25.156Z,31.88
2022-11-22T14:57:30.583Z,28.30
2022-11-22T15:01:12.429Z,36.92
2022-11-22T15:09:11.521Z,42.03
2022-11-22T15:09:12.523Z,35.17
2022-11-22T15:12:03.842Z,35.55
2022-11-22T16:00:29.787Z,58.65
2022-11-22T16:03:39.364Z,55.22
2022-11-22T16:06:43.725Z,66.10
2022-11-22T16:09:51.238Z,65.50
2022-11-22T16:12:54.038Z,70.05
2022-11-22T16:16:11.358Z,61.20
2022-11-22T16:19:33.882Z,52.03
2022-11-22T16:22:39.263Z,50.85
2022-11-22T16:25:47.174Z,42.28
2022-11-22T16:28:51.625Z,52.13
2022-11-22T16:32:08.032Z,49.25
2022-11-22T16:35:29.121Z,50.92
2022-11-22T16:38:33.524Z,46.03
2022-11-22T16:41:45.280Z,48.95
2022-11-22T16:48:40.875Z,49.85
2022-11-22T16:51:53.322Z,43.42
2022-11-22T16:54:56.664Z,54.70
2022-11-22T16:57:58.791Z,50.17
2022-11-22T17:01:01.322Z,59.55
2022-11-22T17:04:08.705Z,58.50
2022-11-22T17:07:16.142Z,48.17
2022-11-22T17:10:24.122Z,57.45
2022-11-22T17:13:28.757Z,55.25
2022-11-22T17:16:33.699Z,54.35
2022-11-22T17:19:53.514Z,64.88
2022-11-22T17:22:59.114Z,84.95
2022-11-22T17:26:01.394Z,81.20
2022-11-22T17:29:04.188Z,68.60
2022-11-22T17:32:09.513Z,69.28
2022-11-22T17:35:12.009Z,67.90
2022-11-22T17:38:20.134Z,63.17
2022-11-22T17:41:22.876Z,63.90
2022-11-22T17:44:28.098Z,72.07
2022-11-22T17:51:09.602Z,76.32
2022-11-22T17:54:15.799Z,75.05
2022-11-22T17:57:18.399Z,83.80
2022-11-22T18:00:29.716Z,74.05
2022-11-22T18:03:33.867Z,72.88
2022-11-22T18:06:36.589Z,72.90
2022-11-22T18:09:39.943Z,77.00
2022-11-22T18:13:19.551Z,74.53
2022-11-22T18:16:18.672Z,71.25
2022-11-22T18:19:21.532Z,74.43
2022-11-22T18:22:33.590Z,68.00
2022-11-22T18:25:41.464Z,61.53
2022-11-22T18:28:49.730Z,54.03
2022-11-22T18:32:08.057Z,58.60
2022-11-22T18:35:11.265Z,65.22
2022-11-22T18:38:13.362Z,53.83
2022-11-22T18:41:19.252Z,72.43
2022-11-22T18:44:21.351Z,62.92
2022-11-22T18:47:23.428Z,52.65
2022-11-22T18:50:25.743Z,53.78
2022-11-22T18:53:31.130Z,58.38
2022-11-22T18:56:38.068Z,63.55
2022-11-22T19:02:43.963Z,62.40
2022-11-22T19:05:45.967Z,66.00
2022-11-22T19:08:49.154Z,73.32
2022-11-22T19:11:55.577Z,78.80
2022-11-22T19:15:01.883Z,66.88
2022-11-22T19:18:04.385Z,72.53
2022-11-22T19:21:17.080Z,59.50
2022-11-22T19:24:19.201Z,55.38
2022-11-22T19:27:22.612Z,58.22
2022-11-22T19:30:28.441Z,57.38
2022-11-22T19:33:32.654Z,60.70
2022-11-22T19:36:36.465Z,61.40
2022-11-22T19:39:40.522Z,67.47
2022-11-22T19:42:42.639Z,50.45
2022-11-22T19:45:45.943Z,60.50
2022-11-22T19:48:56.029Z,54.65
2022-11-22T19:51:58.534Z,57.17
2022-11-22T19:55:00.622Z,48.33
2022-11-22T19:58:04.056Z,38.92
2022-11-22T20:01:08.456Z,72.43
2022-11-22T20:04:13.499Z,55.95
2022-11-22T20:07:15.722Z,48.65
2022-11-22T20:10:21.276Z,61.40
2022-11-22T20:13:23.362Z,48.65
2022-11-22T20:16:28.218Z,47.92
2022-11-22T20:19:34.360Z,51.42
2022-11-22T20:26:03.909Z,51.25
2022-11-22T20:29:12.648Z,45.95
2022-11-22T20:32:14.943Z,60.42
2022-11-22T20:35:19.549Z,50.50
2022-11-22T20:38:21.983Z,46.33
2022-11-22T20:41:27.035Z,52.33
2022-11-22T20:44:29.455Z,55.30
2022-11-22T20:47:31.912Z,47.45
2022-11-22T20:50:34.436Z,50.60
2022-11-22T20:53:37.269Z,52.65
2022-11-22T20:56:39.598Z,53.55
2022-11-22T20:59:41.710Z,56.78
2022-11-22T21:02:43.959Z,52.40
2022-11-22T21:05:47.059Z,52.10
2022-11-22T21:08:49.867Z,56.85
2022-11-22T21:11:52.031Z,47.88
2022-11-22T21:14:54.096Z,51.72
2022-11-22T21:18:23.472Z,52.58
2022-11-22T21:21:23.371Z,51.13
2022-11-22T21:24:26.689Z,49.25
2022-11-22T21:27:29.039Z,42.60
2022-11-22T21:30:31.119Z,47.95
2022-11-22T21:33:34.769Z,47.58
2022-11-22T21:36:38.270Z,46.55
2022-11-22T21:39:41.492Z,51.28
2022-11-22T21:42:44.805Z,47.13
2022-11-22T21:45:46.898Z,46.17
2022-11-22T21:48:50.464Z,54.55
2022-11-22T21:51:52.614Z,59.72
2022-11-22T21:54:54.776Z,48.92
2022-11-22T21:57:56.970Z,35.88
2022-11-22T22:01:10.917Z,43.80
2022-11-22T22:04:16.813Z,48.05
2022-11-22T22:07:44.825Z,40.47
2022-11-22T22:10:42.022Z,41.17
2022-11-22T22:13:45.266Z,43.47
2022-11-22T22:16:49.575Z,47.00
2022-11-22T22:19:52.798Z,38.95
2022-11-22T22:22:54.993Z,45.72
2022-11-22T22:25:59.924Z,42.35
2022-11-22T22:29:01.971Z,45.20
2022-11-22T22:32:10.274Z,45.22
2022-11-22T22:35:12.723Z,50.55
2022-11-22T22:38:14.751Z,42.53
2022-11-22T22:41:17.958Z,49.75
2022-11-22T22:44:22.037Z,39.67
2022-11-22T22:47:26.179Z,49.10
2022-11-22T22:50:29.127Z,40.63
2022-11-22T22:53:31.494Z,40.13
2022-11-22T22:56:33.591Z,40.17
2022-11-22T22:59:35.716Z,40.33
2022-11-22T23:02:38.264Z,35.22
2022-11-22T23:05:41.317Z,37.03
2022-11-22T23:08:48.143Z,33.38
2022-11-22T23:12:09.685Z,34.97
2022-11-22T23:15:11.834Z,41.78
2022-11-22T23:18:14.335Z,36.42
2022-11-22T23:21:17.648Z,33.97
2022-11-22T23:24:19.769Z,39.30
2022-11-22T23:27:21.870Z,32.38
2022-11-22T23:30:25.683Z,36.03
2022-11-22T23:33:29.603Z,36.75
2022-11-22T23:36:34.826Z,34.08
2022-11-22T23:39:39.734Z,33.60
2022-11-22T23:42:41.979Z,37.03
2022-11-22T23:45:46.993Z,30.42
2022-11-22T23:48:55.566Z,38.85
2022-11-22T23:51:57.745Z,44.40
2022-11-22T23:54:59.776Z,38.90
2022-11-22T23:58:01.953Z,44.28
